Time;durP1;ratioP1;P1;durP2;ratioP2;P2;SDS_P1;SDS_P2;PMS_P1;PMS_P2;Temp;Humidity;BMP_temperature;BMP_pressure;BME280_temperature;BME280_humidity;BME280_pressure;Samples;Min_cycle;Max_cycle;Signal;HPM_P1;HPM_P2
2021/05/08 00:00:54;;;;;;;1.92;1.02;;;;;;;;;;5044291;28;20063;-78
2021/05/08 00:03:19;;;;;;;1.80;1.00;;;;;;;;;;5027788;28;20029;-78
2021/05/08 00:05:46;;;;;;;1.80;1.00;;;;;;;;;;5028423;28;20468;-79
2021/05/08 00:08:11;;;;;;;2.45;1.00;;;;;;;;;;5044344;28;20052;-79
2021/05/08 00:10:37;;;;;;;1.80;0.83;;;;;;;;;;5027824;28;20036;-79
2021/05/08 00:13:02;;;;;;;2.43;1.20;;;;;;;;;;5062046;28;20024;-78
2021/05/08 00:15:27;;;;;;;2.20;1.20;;;;;;;;;;5026945;28;20395;-78
2021/05/08 00:17:53;;;;;;;1.97;1.07;;;;;;;;;;5010836;28;20079;-78
2021/05/08 00:20:18;;;;;;;1.63;1.00;;;;;;;;;;5061800;28;20021;-79
2021/05/08 00:22:43;;;;;;;1.63;0.90;;;;;;;;;;5043345;28;20089;-78
2021/05/08 00:25:10;;;;;;;1.60;0.90;;;;;;;;;;5043757;28;20032;-78
2021/05/08 00:27:35;;;;;;;1.65;0.85;;;;;;;;;;5042012;28;20021;-78
2021/05/08 00:30:00;;;;;;;2.27;1.07;;;;;;;;;;5043959;28;20044;-78
2021/05/08 00:32:26;;;;;;;2.60;1.10;;;;;;;;;;5029473;28;20057;-79
2021/05/08 00:34:51;;;;;;;2.17;1.00;;;;;;;;;;5026799;28;20040;-78
2021/05/08 00:37:16;;;;;;;1.80;1.00;;;;;;;;;;5026600;28;20063;-78
2021/05/08 00:39:42;;;;;;;2.10;0.93;;;;;;;;;;5026114;28;20032;-78
2021/05/08 00:42:08;;;;;;;2.08;1.00;;;;;;;;;;5042086;28;20464;-78
2021/05/08 00:44:33;;;;;;;1.47;0.90;;;;;;;;;;5026172;28;20050;-78
2021/05/08 00:46:58;;;;;;;1.87;0.97;;;;;;;;;;5026073;28;20404;-78
2021/05/08 00:49:27;;;;;;;1.83;1.10;;;;;;;;;;5025640;28;20025;-78
2021/05/08 00:51:52;;;;;;;2.70;1.00;;;;;;;;;;5060056;28;20079;-78
2021/05/08 00:54:18;;;;;;;2.17;0.93;;;;;;;;;;5009371;28;20033;-79
2021/05/08 00:56:43;;;;;;;2.70;0.77;;;;;;;;;;5043281;28;20028;-78
2021/05/08 00:59:08;;;;;;;2.10;1.03;;;;;;;;;;5026319;28;20058;-78
2021/05/08 01:01:34;;;;;;;1.30;0.80;;;;;;;;;;5026559;28;20503;-78
2021/05/08 01:03:59;;;;;;;2.23;1.10;;;;;;;;;;5009592;28;20079;-79
2021/05/08 01:06:24;;;;;;;1.57;0.90;;;;;;;;;;5026009;28;20021;-80
2021/05/08 01:08:50;;;;;;;1.73;0.93;;;;;;;;;;5026120;28;20032;-80
2021/05/08 01:11:15;;;;;;;1.87;0.90;;;;;;;;;;5026233;28;20032;-78
2021/05/08 01:13:41;;;;;;;1.93;0.90;;;;;;;;;;5025667;28;20029;-78
2021/05/08 01:16:06;;;;;;;2.10;1.00;;;;;;;;;;5025804;28;20044;-78
2021/05/08 01:18:32;;;;;;;1.73;0.80;;;;;;;;;;5025755;28;20071;-78
2021/05/08 01:20:58;;;;;;;2.07;0.90;;;;;;;;;;5025389;28;20403;-78
2021/05/08 01:23:24;;;;;;;1.63;0.82;;;;;;;;;;5060164;28;20047;-78
2021/05/08 01:25:49;;;;;;;2.13;0.83;;;;;;;;;;5025807;28;20105;-79
2021/05/08 01:28:15;;;;;;;1.60;0.80;;;;;;;;;;5025783;28;20071;-79
2021/05/08 01:30:40;;;;;;;2.77;0.90;;;;;;;;;;5042658;28;20485;-78
2021/05/08 01:33:06;;;;;;;1.23;0.80;;;;;;;;;;5025955;28;20078;-78
2021/05/08 01:35:31;;;;;;;1.43;0.83;;;;;;;;;;5025692;28;20543;-79
2021/05/08 01:37:57;;;;;;;1.57;0.90;;;;;;;;;;5026475;28;20274;-79
2021/05/08 01:40:30;;;;;;;1.97;0.93;;;;;;;;;;5026439;28;20123;-80
2021/05/08 01:42:56;;;;;;;1.70;1.00;;;;;;;;;;5025759;28;20024;-78
2021/05/08 01:45:22;;;;;;;2.30;1.10;;;;;;;;;;5042275;28;20111;-78
2021/05/08 01:48:25;;;;;;;1.67;1.00;;;;;;;;;;5026077;28;20484;-78
2021/05/08 01:57:50;;;;;;;2.00;0.90;;;;;;;;;;5060524;28;20032;-78
2021/05/08 02:00:21;;;;;;;1.98;0.80;;;;;;;;;;5025622;28;20396;-78
2021/05/08 02:02:47;;;;;;;2.17;1.02;;;;;;;;;;5025595;28;20025;-78
2021/05/08 02:05:12;;;;;;;1.83;1.00;;;;;;;;;;5025311;28;20050;-78
2021/05/08 02:07:37;;;;;;;2.97;1.00;;;;;;;;;;5041740;28;20075;-78
2021/05/08 02:10:07;;;;;;;1.00;0.70;;;;;;;;;;5025116;28;20033;-78
2021/05/08 02:12:33;;;;;;;1.88;0.88;;;;;;;;;;5025786;28;20052;-78
2021/05/08 02:14:58;;;;;;;1.55;0.90;;;;;;;;;;5042475;28;20028;-78
2021/05/08 02:17:23;;;;;;;1.80;0.80;;;;;;;;;;5025632;28;20035;-78
2021/05/08 02:19:49;;;;;;;1.90;0.93;;;;;;;;;;5025333;28;20024;-78
2021/05/08 02:22:14;;;;;;;1.50;0.80;;;;;;;;;;5058996;28;20385;-79
2021/05/08 02:24:40;;;;;;;1.40;0.90;;;;;;;;;;5025659;28;20025;-78
2021/05/08 02:27:05;;;;;;;2.43;0.97;;;;;;;;;;5040992;28;20051;-78
2021/05/08 02:29:30;;;;;;;1.50;0.70;;;;;;;;;;5024155;28;20028;-78
2021/05/08 02:31:56;;;;;;;1.77;0.80;;;;;;;;;;5040518;28;20032;-78
2021/05/08 02:34:21;;;;;;;1.10;0.70;;;;;;;;;;5024025;28;20025;-78
2021/05/08 02:36:46;;;;;;;1.43;0.90;;;;;;;;;;5040349;28;20039;-78
2021/05/08 02:39:12;;;;;;;2.27;0.80;;;;;;;;;;5007545;28;20024;-78
2021/05/08 02:41:37;;;;;;;1.57;0.83;;;;;;;;;;5034999;23;20230;-80
2021/05/08 02:44:03;;;;;;;1.37;0.80;;;;;;;;;;5016864;28;20464;-80
2021/05/08 02:46:28;;;;;;;1.57;0.80;;;;;;;;;;5001265;28;20029;-80
2021/05/08 02:48:53;;;;;;;1.43;0.80;;;;;;;;;;5000860;28;20496;-80
2021/05/08 02:51:19;;;;;;;3.23;0.90;;;;;;;;;;4995510;28;20444;-80
2021/05/08 02:53:44;;;;;;;1.60;0.80;;;;;;;;;;4984178;28;20033;-80
2021/05/08 02:56:09;;;;;;;1.53;0.90;;;;;;;;;;4984800;28;20506;-80
2021/05/08 02:58:35;;;;;;;1.43;0.90;;;;;;;;;;4984136;28;20052;-80
2021/05/08 03:01:00;;;;;;;1.73;0.80;;;;;;;;;;5000527;28;20084;-80
2021/05/08 03:03:25;;;;;;;1.73;0.90;;;;;;;;;;5000565;28;20061;-80
2021/05/08 03:05:51;;;;;;;1.40;0.70;;;;;;;;;;5000268;28;20030;-80
2021/05/08 03:08:16;;;;;;;1.20;0.70;;;;;;;;;;5000241;28;20144;-80
2021/05/08 03:10:41;;;;;;;1.67;0.80;;;;;;;;;;4984088;28;20068;-80
2021/05/08 03:13:07;;;;;;;1.33;0.77;;;;;;;;;;5000266;28;20021;-81
2021/05/08 03:15:32;;;;;;;1.73;0.77;;;;;;;;;;5000179;28;20112;-81
2021/05/08 03:17:58;;;;;;;1.83;0.90;;;;;;;;;;5000383;28;20107;-80
2021/05/08 03:20:23;;;;;;;1.50;0.87;;;;;;;;;;4983935;28;20476;-80
2021/05/08 03:22:49;;;;;;;1.17;0.80;;;;;;;;;;4996963;28;20548;-80
2021/05/08 03:25:15;;;;;;;1.10;0.80;;;;;;;;;;4996890;28;20026;-80
2021/05/08 03:27:40;;;;;;;1.80;0.67;;;;;;;;;;4996986;28;20109;-80
2021/05/08 03:30:06;;;;;;;1.10;0.70;;;;;;;;;;4997087;28;20396;-81
2021/05/08 03:32:32;;;;;;;1.50;0.70;;;;;;;;;;4980485;28;20025;-80
2021/05/08 03:34:57;;;;;;;1.50;0.80;;;;;;;;;;4964624;28;20076;-80
2021/05/08 03:37:22;;;;;;;2.00;0.90;;;;;;;;;;4996507;28;20031;-81
2021/05/08 03:39:48;;;;;;;1.80;0.80;;;;;;;;;;4997158;28;20022;-80
2021/05/08 03:42:13;;;;;;;1.73;0.90;;;;;;;;;;4980642;28;20030;-80
2021/05/08 03:44:38;;;;;;;1.40;0.90;;;;;;;;;;4996602;28;20156;-80
2021/05/08 03:47:04;;;;;;;0.77;0.70;;;;;;;;;;4996644;28;20104;-80
2021/05/08 03:49:29;;;;;;;1.17;0.70;;;;;;;;;;4980598;28;20176;-80
2021/05/08 03:51:59;;;;;;;1.67;0.73;;;;;;;;;;4996545;28;20184;-81
2021/05/08 03:54:24;;;;;;;1.92;0.70;;;;;;;;;;4997498;28;20455;-81
2021/05/08 03:56:50;;;;;;;1.33;0.90;;;;;;;;;;4980664;28;20066;-80
2021/05/08 03:59:15;;;;;;;1.53;0.90;;;;;;;;;;4999351;28;20029;-80
2021/05/08 04:01:40;;;;;;;1.27;0.77;;;;;;;;;;4983927;28;20056;-80
2021/05/08 04:04:06;;;;;;;1.63;0.90;;;;;;;;;;4986529;28;20459;-81
2021/05/08 04:06:31;;;;;;;1.17;0.70;;;;;;;;;;4986939;28;20025;-81
2021/05/08 04:08:56;;;;;;;1.33;0.73;;;;;;;;;;4987226;28;20021;-81
2021/05/08 04:11:22;;;;;;;1.43;0.93;;;;;;;;;;5003291;28;20024;-81
2021/05/08 04:13:47;;;;;;;1.13;0.80;;;;;;;;;;5003089;28;20033;-81
2021/05/08 04:16:12;;;;;;;1.97;1.00;;;;;;;;;;5003254;28;20053;-81
2021/05/08 04:18:38;;;;;;;1.57;0.70;;;;;;;;;;5002998;28;20021;-81
2021/05/08 04:21:03;;;;;;;1.70;0.90;;;;;;;;;;5002971;28;20094;-81
2021/05/08 04:23:29;;;;;;;1.30;0.60;;;;;;;;;;4986814;28;20029;-81
2021/05/08 04:25:54;;;;;;;1.10;0.70;;;;;;;;;;4999565;28;20088;-81
2021/05/08 04:28:19;;;;;;;1.50;0.80;;;;;;;;;;4967414;28;20042;-81
2021/05/08 04:30:45;;;;;;;1.30;0.70;;;;;;;;;;4999572;28;20033;-81
2021/05/08 04:33:10;;;;;;;1.53;0.70;;;;;;;;;;4999769;28;20160;-81
2021/05/08 04:35:35;;;;;;;1.20;0.70;;;;;;;;;;4999370;28;20053;-81
2021/05/08 04:38:04;;;;;;;0.87;0.50;;;;;;;;;;4983133;28;20060;-81
2021/05/08 04:40:29;;;;;;;1.35;0.73;;;;;;;;;;4999243;28;20025;-81
2021/05/08 04:42:55;;;;;;;1.17;0.67;;;;;;;;;;4999136;28;20032;-81
2021/05/08 04:45:20;;;;;;;1.47;0.70;;;;;;;;;;4966983;28;20022;-81
2021/05/08 04:47:45;;;;;;;1.50;0.70;;;;;;;;;;4999559;28;20029;-81
2021/05/08 04:50:11;;;;;;;1.17;0.67;;;;;;;;;;4999556;28;20053;-81
2021/05/08 04:52:37;;;;;;;0.97;0.60;;;;;;;;;;4995248;28;20108;-81
2021/05/08 04:55:02;;;;;;;1.33;0.60;;;;;;;;;;5002162;28;20044;-81
2021/05/08 04:57:27;;;;;;;1.10;0.60;;;;;;;;;;5001909;28;20017;-81
2021/05/08 04:59:53;;;;;;;1.73;0.80;;;;;;;;;;5001859;28;20022;-81
2021/05/08 05:02:18;;;;;;;3.37;1.17;;;;;;;;;;5002026;28;20036;-81
2021/05/08 05:04:43;;;;;;;4.67;1.73;;;;;;;;;;4985727;28;20057;-80
2021/05/08 05:07:09;;;;;;;5.07;1.50;;;;;;;;;;5002118;28;20032;-81
2021/05/08 05:09:34;;;;;;;3.53;1.80;;;;;;;;;;5003036;28;20021;-80
2021/05/08 05:11:59;;;;;;;3.70;1.97;;;;;;;;;;5002225;28;20544;-81
2021/05/08 05:14:25;;;;;;;4.70;2.07;;;;;;;;;;5002624;28;20542;-81
2021/05/08 05:16:51;;;;;;;4.18;2.20;;;;;;;;;;5002008;28;20028;-80
2021/05/08 05:19:16;;;;;;;5.67;2.13;;;;;;;;;;5002240;28;20392;-81
2021/05/08 05:21:42;;;;;;;5.10;1.57;;;;;;;;;;4985663;28;20033;-80
2021/05/08 05:24:08;;;;;;;4.40;1.40;;;;;;;;;;5001769;28;20121;-80
2021/05/08 05:26:33;;;;;;;2.77;1.50;;;;;;;;;;4985663;28;20021;-80
2021/05/08 05:28:58;;;;;;;4.10;1.60;;;;;;;;;;5001431;28;20125;-80
2021/05/08 05:31:24;;;;;;;3.50;1.80;;;;;;;;;;5003147;28;20526;-80
2021/05/08 05:33:49;;;;;;;3.50;1.40;;;;;;;;;;5003369;28;20025;-80
2021/05/08 05:36:14;;;;;;;3.87;1.60;;;;;;;;;;5000297;28;20030;-81
2021/05/08 05:38:40;;;;;;;3.53;1.57;;;;;;;;;;4997820;28;20049;-81
2021/05/08 05:41:05;;;;;;;3.57;1.60;;;;;;;;;;4997630;28;20156;-80
2021/05/08 05:43:31;;;;;;;4.33;1.73;;;;;;;;;;4997655;28;20049;-80
2021/05/08 05:45:56;;;;;;;2.93;1.50;;;;;;;;;;4997589;28;20042;-80
2021/05/08 05:48:22;;;;;;;3.97;1.40;;;;;;;;;;4997368;28;20115;-81
2021/05/08 05:50:47;;;;;;;4.07;1.70;;;;;;;;;;4996949;28;20057;-80
2021/05/08 05:53:13;;;;;;;3.70;1.53;;;;;;;;;;4996806;28;20018;-80
2021/05/08 05:55:38;;;;;;;3.83;1.90;;;;;;;;;;4996807;28;20437;-80
2021/05/08 05:58:03;;;;;;;3.53;1.60;;;;;;;;;;4996780;28;20175;-80
2021/05/08 06:00:29;;;;;;;4.40;1.50;;;;;;;;;;4996796;28;20062;-81
2021/05/08 06:02:54;;;;;;;3.83;1.73;;;;;;;;;;4996955;28;20033;-81
2021/05/08 06:05:19;;;;;;;2.13;1.23;;;;;;;;;;4997779;28;20546;-81
2021/05/08 06:07:45;;;;;;;4.00;1.80;;;;;;;;;;4997861;28;20108;-80
2021/05/08 06:10:11;;;;;;;3.23;1.60;;;;;;;;;;5000885;28;20029;-80
2021/05/08 06:12:37;;;;;;;4.95;1.80;;;;;;;;;;4984677;28;20029;-80
2021/05/08 06:15:04;;;;;;;3.60;1.70;;;;;;;;;;4984436;28;20159;-80
2021/05/08 06:17:30;;;;;;;3.00;1.45;;;;;;;;;;5000986;28;20085;-80
2021/05/08 06:19:55;;;;;;;3.07;1.30;;;;;;;;;;4984363;28;20588;-81
2021/05/08 06:22:20;;;;;;;3.67;1.70;;;;;;;;;;4984329;28;20026;-80
2021/05/08 06:24:46;;;;;;;2.80;1.50;;;;;;;;;;5000133;28;20120;-80
2021/05/08 06:27:11;;;;;;;2.23;1.30;;;;;;;;;;4984516;28;20052;-81
2021/05/08 06:29:37;;;;;;;3.33;1.60;;;;;;;;;;5001017;28;20112;-80
2021/05/08 06:32:03;;;;;;;3.83;1.50;;;;;;;;;;5000700;28;20055;-80
2021/05/08 06:34:28;;;;;;;4.82;1.50;;;;;;;;;;4985527;28;20074;-81
2021/05/08 06:36:54;;;;;;;3.20;1.60;;;;;;;;;;5000776;28;20037;-81
2021/05/08 06:39:19;;;;;;;3.37;1.60;;;;;;;;;;5000625;28;20022;-80
2021/05/08 06:41:45;;;;;;;3.47;1.60;;;;;;;;;;5000135;28;20116;-81
2021/05/08 06:44:10;;;;;;;2.37;1.20;;;;;;;;;;5000434;28;20076;-81
2021/05/08 06:46:35;;;;;;;2.77;1.20;;;;;;;;;;5000638;28;20163;-80
2021/05/08 06:49:01;;;;;;;4.00;1.50;;;;;;;;;;5000175;28;20107;-81
2021/05/08 06:51:28;;;;;;;3.00;1.40;;;;;;;;;;5000422;28;20101;-80
2021/05/08 06:53:53;;;;;;;2.63;1.35;;;;;;;;;;5000824;28;20396;-79
2021/05/08 06:56:18;;;;;;;3.70;1.50;;;;;;;;;;4986038;28;20035;-80
2021/05/08 06:58:44;;;;;;;4.10;1.50;;;;;;;;;;4984614;28;20108;-80
2021/05/08 07:01:09;;;;;;;3.67;1.40;;;;;;;;;;5000067;28;20381;-80
2021/05/08 07:03:35;;;;;;;3.60;1.50;;;;;;;;;;4983897;28;20435;-80
2021/05/08 07:06:00;;;;;;;3.57;1.60;;;;;;;;;;5000730;28;20400;-80
2021/05/08 07:08:25;;;;;;;3.97;1.20;;;;;;;;;;4985158;28;20512;-80
2021/05/08 07:10:51;;;;;;;3.03;1.57;;;;;;;;;;5000668;28;20052;-81
2021/05/08 07:13:17;;;;;;;2.42;1.20;;;;;;;;;;5018480;28;20383;-80
2021/05/08 07:15:42;;;;;;;3.50;1.40;;;;;;;;;;5001437;28;20029;-80
2021/05/08 07:18:08;;;;;;;2.10;1.07;;;;;;;;;;5001546;28;20021;-80
2021/05/08 07:20:35;;;;;;;4.90;1.60;;;;;;;;;;4984327;28;20031;-80
2021/05/08 07:23:01;;;;;;;3.15;1.30;;;;;;;;;;5000694;28;20025;-80
2021/05/08 07:25:26;;;;;;;3.47;1.50;;;;;;;;;;4983810;28;20495;-80
2021/05/08 07:27:52;;;;;;;2.50;1.20;;;;;;;;;;5000309;28;20029;-80
2021/05/08 07:30:17;;;;;;;2.83;1.40;;;;;;;;;;5000457;28;20022;-80
2021/05/08 07:32:42;;;;;;;2.73;1.13;;;;;;;;;;5000944;28;20029;-79
2021/05/08 07:35:08;;;;;;;4.73;1.40;;;;;;;;;;4984394;28;20064;-80
2021/05/08 07:37:33;;;;;;;3.53;1.30;;;;;;;;;;5019755;28;20026;-80
2021/05/08 07:39:59;;;;;;;2.77;1.20;;;;;;;;;;4987732;28;20030;-80
2021/05/08 07:42:24;;;;;;;4.80;1.40;;;;;;;;;;5003849;28;20029;-79
2021/05/08 07:44:49;;;;;;;3.17;1.50;;;;;;;;;;4987679;28;20120;-79
2021/05/08 07:47:15;;;;;;;2.97;1.37;;;;;;;;;;4987713;28;20087;-80
2021/05/08 07:49:40;;;;;;;2.80;1.50;;;;;;;;;;4988234;28;20025;-79
2021/05/08 07:52:06;;;;;;;2.80;1.30;;;;;;;;;;5020052;28;20567;-79
2021/05/08 07:54:31;;;;;;;3.03;1.33;;;;;;;;;;5001356;28;20491;-80
2021/05/08 07:56:56;;;;;;;2.13;1.10;;;;;;;;;;5001627;28;20061;-80
2021/05/08 07:59:22;;;;;;;2.87;1.30;;;;;;;;;;5001309;28;20053;-80
2021/05/08 08:01:47;;;;;;;3.33;1.33;;;;;;;;;;5001687;28;20471;-79
2021/05/08 08:04:12;;;;;;;3.67;1.20;;;;;;;;;;4985055;28;20615;-79
2021/05/08 08:06:38;;;;;;;3.10;1.27;;;;;;;;;;4984819;28;20079;-79
2021/05/08 08:09:04;;;;;;;2.92;1.23;;;;;;;;;;5001074;28;20040;-79
2021/05/08 08:11:30;;;;;;;3.67;1.40;;;;;;;;;;5000794;28;20056;-79
2021/05/08 08:13:56;;;;;;;6.20;1.38;;;;;;;;;;5001402;28;20456;-79
2021/05/08 08:16:21;;;;;;;3.40;1.27;;;;;;;;;;5000835;28;20053;-79
2021/05/08 08:18:46;;;;;;;3.43;1.37;;;;;;;;;;5001208;28;20504;-79
2021/05/08 08:21:12;;;;;;;2.63;1.10;;;;;;;;;;4985017;28;20107;-80
2021/05/08 08:23:37;;;;;;;2.63;1.33;;;;;;;;;;5000572;28;20064;-80
2021/05/08 08:26:02;;;;;;;2.57;1.23;;;;;;;;;;5000833;28;20075;-80
2021/05/08 08:28:28;;;;;;;3.47;1.30;;;;;;;;;;5000971;28;20053;-81
2021/05/08 08:30:53;;;;;;;2.43;1.20;;;;;;;;;;5001386;28;20022;-81
2021/05/08 08:33:18;;;;;;;2.47;1.20;;;;;;;;;;5001755;28;20116;-81
2021/05/08 08:35:44;;;;;;;3.33;1.30;;;;;;;;;;4985124;28;20108;-80
2021/05/08 08:38:09;;;;;;;3.07;1.40;;;;;;;;;;5001596;28;20143;-81
2021/05/08 08:40:34;;;;;;;4.00;1.20;;;;;;;;;;5001470;28;20035;-81
2021/05/08 08:43:00;;;;;;;4.83;1.40;;;;;;;;;;5001965;28;20481;-81
2021/05/08 08:45:25;;;;;;;2.93;1.40;;;;;;;;;;5001323;28;20032;-81
2021/05/08 08:47:50;;;;;;;3.17;1.30;;;;;;;;;;5000598;28;20087;-81
2021/05/08 08:50:16;;;;;;;3.43;1.30;;;;;;;;;;5001037;28;20111;-81
2021/05/08 08:52:41;;;;;;;3.20;1.50;;;;;;;;;;5000929;28;20598;-81
2021/05/08 08:55:08;;;;;;;2.77;1.00;;;;;;;;;;5000864;22;20035;-81
2021/05/08 08:57:36;;;;;;;2.47;1.02;;;;;;;;;;5044099;28;20040;-80
2021/05/08 09:00:04;;;;;;;3.10;1.20;;;;;;;;;;5028784;28;20059;-81
2021/05/08 09:02:30;;;;;;;2.70;1.20;;;;;;;;;;5023050;28;20032;-80
2021/05/08 09:04:57;;;;;;;2.70;1.17;;;;;;;;;;5021805;28;20476;-79
2021/05/08 09:07:24;;;;;;;2.78;1.40;;;;;;;;;;5005750;28;20052;-80
2021/05/08 09:09:50;;;;;;;4.00;1.20;;;;;;;;;;5005126;28;20026;-80
2021/05/08 09:12:15;;;;;;;2.30;1.20;;;;;;;;;;5021674;28;20018;-82
2021/05/08 09:14:46;;;;;;;2.80;1.30;;;;;;;;;;5011560;28;20112;-80
2021/05/08 09:17:13;;;;;;;2.05;1.00;;;;;;;;;;5025329;28;20025;-80
2021/05/08 09:19:42;;;;;;;3.35;1.30;;;;;;;;;;5023408;28;20391;-80
2021/05/08 09:22:24;;;;;;;2.25;1.23;;;;;;;;;;5040744;28;20052;-80
2021/05/08 09:24:53;;;;;;;2.33;1.13;;;;;;;;;;5025382;28;20074;-80
2021/05/08 09:27:38;;;;;;;3.33;1.15;;;;;;;;;;5040628;28;20078;-81
2021/05/08 09:30:11;;;;;;;2.92;1.30;;;;;;;;;;5058717;28;20029;-84
2021/05/08 09:32:50;;;;;;;4.68;1.20;;;;;;;;;;5039382;28;20105;-84
2021/05/08 09:35:22;;;;;;;1.65;0.90;;;;;;;;;;5024950;28;20029;-84
2021/05/08 09:37:49;;;;;;;2.22;1.00;;;;;;;;;;5039639;28;20104;-84
2021/05/08 09:40:19;;;;;;;3.65;1.27;;;;;;;;;;5022384;28;20090;-83
2021/05/08 09:42:46;;;;;;;2.20;1.20;;;;;;;;;;5022982;28;20082;-83
2021/05/08 09:45:12;;;;;;;;;;;;;;;;;;5023966;28;20043;-83
2021/05/08 09:47:37;;;;;;;2.50;1.02;;;;;;;;;;5055796;28;19912;-83
2021/05/08 09:50:03;;;;;;;3.53;1.30;;;;;;;;;;5007221;28;20060;-84
2021/05/08 09:52:47;;;;;;;2.30;1.00;;;;;;;;;;5020727;28;20021;-82
2021/05/08 09:55:13;;;;;;;1.55;1.00;;;;;;;;;;5035267;28;20025;-83
2021/05/08 09:57:38;;;;;;;2.17;0.80;;;;;;;;;;5020445;28;20430;-81
2021/05/08 10:00:05;;;;;;;2.03;1.17;;;;;;;;;;5022856;28;20056;-80
2021/05/08 10:02:32;;;;;;;1.98;1.00;;;;;;;;;;5022368;28;20559;-79
2021/05/08 10:04:59;;;;;;;;;;;;;;;;;;5038704;28;20372;-80
2021/05/08 10:07:30;;;;;;;2.47;1.13;;;;;;;;;;5054599;28;20007;-79
2021/05/08 10:09:59;;;;;;;2.70;0.90;;;;;;;;;;5022263;28;20031;-79
2021/05/08 10:12:26;;;;;;;2.10;0.95;;;;;;;;;;5023089;28;20491;-80
2021/05/08 10:14:53;;;;;;;2.15;1.00;;;;;;;;;;5022453;28;20047;-80
2021/05/08 10:17:21;;;;;;;;;;;;;;;;;;5022468;28;20037;-80
2021/05/08 10:19:48;;;;;;;1.63;0.80;;;;;;;;;;5038514;28;19995;-80
2021/05/08 10:22:14;;;;;;;3.00;1.02;;;;;;;;;;5038727;28;20128;-80
2021/05/08 10:24:40;;;;;;;2.00;0.90;;;;;;;;;;5037915;28;20053;-80
2021/05/08 10:27:06;;;;;;;1.70;0.90;;;;;;;;;;5038113;28;20029;-80
2021/05/08 10:29:35;;;;;;;2.17;1.00;;;;;;;;;;5021772;28;20144;-80
2021/05/08 10:32:01;;;;;;;3.22;1.10;;;;;;;;;;5021904;28;20032;-80
2021/05/08 10:34:37;;;;;;;2.83;1.10;;;;;;;;;;5022150;28;20029;-80
2021/05/08 10:37:12;;;;;;;2.25;0.93;;;;;;;;;;5021868;28;20033;-81
2021/05/08 10:39:55;;;;;;;2.13;0.90;;;;;;;;;;5038391;28;20024;-80
2021/05/08 10:42:39;;;;;;;1.60;0.93;;;;;;;;;;5019485;28;20041;-80
2021/05/08 10:45:20;;;;;;;2.40;1.02;;;;;;;;;;5035369;28;20018;-80
2021/05/08 10:47:55;;;;;;;2.40;0.90;;;;;;;;;;5017767;28;20025;-80
2021/05/08 10:50:21;;;;;;;1.70;0.82;;;;;;;;;;5035864;28;20424;-80
2021/05/08 10:52:58;;;;;;;1.85;1.00;;;;;;;;;;5018575;28;20101;-80
2021/05/08 10:55:23;;;;;;;2.25;0.95;;;;;;;;;;5036428;28;20033;-80
2021/05/08 10:58:14;;;;;;;2.60;1.07;;;;;;;;;;5018445;28;20026;-80
2021/05/08 11:00:48;;;;;;;2.70;0.85;;;;;;;;;;5036059;28;20480;-80
2021/05/08 11:03:16;;;;;;;2.30;1.10;;;;;;;;;;5053288;28;20032;-80
2021/05/08 11:05:53;;;;;;;1.83;1.00;;;;;;;;;;5028898;28;20128;-80
2021/05/08 11:08:24;;;;;;;2.53;0.77;;;;;;;;;;5018969;28;20536;-80
2021/05/08 11:10:56;;;;;;;2.40;0.80;;;;;;;;;;5036898;28;20021;-80
2021/05/08 11:13:24;;;;;;;2.08;0.90;;;;;;;;;;5023955;28;20430;-80
2021/05/08 11:15:49;;;;;;;1.80;0.93;;;;;;;;;;5006618;28;20034;-80
2021/05/08 11:18:30;;;;;;;1.50;0.90;;;;;;;;;;5023042;28;20024;-80
2021/05/08 11:20:55;;;;;;;2.05;0.90;;;;;;;;;;5021405;28;20025;-80
2021/05/08 11:23:21;;;;;;;1.63;0.80;;;;;;;;;;5018076;28;20028;-80
2021/05/08 11:25:46;;;;;;;1.73;1.00;;;;;;;;;;5035812;28;20078;-80
2021/05/08 11:28:12;;;;;;;2.40;0.90;;;;;;;;;;5004859;28;20025;-80
2021/05/08 11:30:51;;;;;;;1.83;0.90;;;;;;;;;;5037721;28;20035;-80
2021/05/08 11:33:23;;;;;;;1.60;0.70;;;;;;;;;;5022667;28;20022;-80
2021/05/08 11:35:59;;;;;;;1.90;0.88;;;;;;;;;;5027118;28;20021;-80
2021/05/08 11:38:24;;;;;;;1.85;0.70;;;;;;;;;;5030227;28;20049;-80
2021/05/08 11:40:50;;;;;;;2.50;0.80;;;;;;;;;;5041453;28;20553;-80
2021/05/08 11:43:26;;;;;;;2.00;1.00;;;;;;;;;;5038879;28;20396;-80
2021/05/08 11:45:51;;;;;;;1.42;0.70;;;;;;;;;;5024266;28;20116;-80
2021/05/08 11:48:16;;;;;;;1.20;0.80;;;;;;;;;;5025422;28;20077;-80
2021/05/08 11:50:46;;;;;;;2.10;0.80;;;;;;;;;;5038906;28;20049;-80
2021/05/08 11:53:18;;;;;;;1.35;0.80;;;;;;;;;;5023022;28;20043;-80
2021/05/08 11:55:47;;;;;;;1.52;0.75;;;;;;;;;;5005710;28;20102;-80
2021/05/08 11:58:26;;;;;;;1.65;0.70;;;;;;;;;;5005498;28;20029;-80
2021/05/08 12:00:51;;;;;;;2.30;1.00;;;;;;;;;;5014019;28;20116;-81
2021/05/08 12:03:17;;;;;;;1.40;0.80;;;;;;;;;;5024927;28;20101;-80
2021/05/08 12:05:46;;;;;;;1.30;0.70;;;;;;;;;;5014035;28;20025;-80
2021/05/08 12:08:16;;;;;;;1.42;0.88;;;;;;;;;;5022053;28;20096;-80
2021/05/08 12:10:42;;;;;;;1.90;0.80;;;;;;;;;;5009187;28;20093;-79
2021/05/08 12:13:08;;;;;;;1.88;0.80;;;;;;;;;;5034183;28;20094;-80
2021/05/08 12:15:40;;;;;;;2.20;0.90;;;;;;;;;;5025490;28;20025;-80
2021/05/08 12:18:07;;;;;;;1.85;0.80;;;;;;;;;;5033546;28;20025;-80
2021/05/08 12:20:35;;;;;;;1.17;0.80;;;;;;;;;;5021533;28;20036;-80
2021/05/08 12:23:02;;;;;;;1.60;0.80;;;;;;;;;;5004514;28;20029;-81
2021/05/08 12:25:28;;;;;;;1.35;0.73;;;;;;;;;;5023636;28;20033;-82
2021/05/08 12:28:18;;;;;;;1.17;0.70;;;;;;;;;;5007881;28;20021;-80
2021/05/08 12:30:53;;;;;;;1.85;0.75;;;;;;;;;;5047981;28;20025;-80
2021/05/08 12:33:20;;;;;;;2.17;0.90;;;;;;;;;;5039303;28;20090;-80
2021/05/08 12:35:45;;;;;;;;;;;;;;;;;;5024872;28;20075;-81
2021/05/08 12:38:17;;;;;;;1.73;0.82;;;;;;;;;;5032272;28;20360;-80
2021/05/08 12:40:45;;;;;;;1.85;0.80;;;;;;;;;;5021223;28;20029;-80
2021/05/08 12:43:21;;;;;;;1.40;0.70;;;;;;;;;;5022265;28;20024;-80
2021/05/08 12:46:03;;;;;;;1.75;0.77;;;;;;;;;;5008355;28;20120;-80
2021/05/08 12:48:43;;;;;;;2.03;0.60;;;;;;;;;;5024138;28;20025;-80
2021/05/08 12:51:27;;;;;;;2.75;0.82;;;;;;;;;;5027480;28;20026;-80
2021/05/08 12:54:17;;;;;;;1.10;0.80;;;;;;;;;;5009901;28;20031;-81
2021/05/08 12:56:43;;;;;;;1.23;0.70;;;;;;;;;;5027862;28;20029;-80
2021/05/08 12:59:09;;;;;;;2.00;0.80;;;;;;;;;;5019793;28;20381;-81
2021/05/08 13:01:36;;;;;;;3.03;0.70;;;;;;;;;;5004622;28;20026;-80
2021/05/08 13:04:03;;;;;;;1.42;0.60;;;;;;;;;;5010144;28;20025;-80
2021/05/08 13:06:28;;;;;;;1.90;0.90;;;;;;;;;;5015571;28;20092;-81
2021/05/08 13:08:54;;;;;;;2.03;0.70;;;;;;;;;;5032440;28;20053;-80
2021/05/08 13:11:39;;;;;;;1.00;0.60;;;;;;;;;;5013118;28;20046;-81
2021/05/08 13:14:21;;;;;;;1.38;0.68;;;;;;;;;;5039872;28;20382;-80
2021/05/08 13:16:47;;;;;;;1.13;0.57;;;;;;;;;;5045670;28;20052;-80
2021/05/08 13:19:13;;;;;;;2.42;0.90;;;;;;;;;;5021751;28;20110;-80
2021/05/08 13:21:38;;;;;;;2.10;0.70;;;;;;;;;;5021258;28;20029;-80
2021/05/08 13:24:05;;;;;;;2.07;0.70;;;;;;;;;;5013441;28;20516;-80
2021/05/08 13:26:30;;;;;;;1.48;0.65;;;;;;;;;;5039771;28;20049;-80
2021/05/08 13:28:56;;;;;;;1.13;0.67;;;;;;;;;;5036817;28;20033;-79
2021/05/08 13:31:21;;;;;;;1.20;0.70;;;;;;;;;;5026841;28;20124;-80
2021/05/08 13:33:48;;;;;;;2.07;0.80;;;;;;;;;;5028787;28;20053;-79
2021/05/08 13:36:14;;;;;;;1.10;0.70;;;;;;;;;;5039121;28;20039;-80
2021/05/08 13:38:39;;;;;;;1.33;0.70;;;;;;;;;;5056786;28;20096;-79
2021/05/08 13:41:04;;;;;;;1.00;0.67;;;;;;;;;;5040193;28;20060;-80
2021/05/08 13:43:30;;;;;;;1.77;0.70;;;;;;;;;;5022698;28;20079;-80
2021/05/08 13:45:55;;;;;;;1.37;0.63;;;;;;;;;;5056052;28;20067;-80
2021/05/08 13:48:21;;;;;;;1.53;0.80;;;;;;;;;;5039718;28;20506;-80
2021/05/08 13:50:47;;;;;;;2.27;0.80;;;;;;;;;;5040210;28;20031;-80
2021/05/08 13:53:12;;;;;;;1.08;0.70;;;;;;;;;;5038765;28;20028;-79
2021/05/08 13:55:37;;;;;;;1.17;0.70;;;;;;;;;;5039345;28;20131;-79
2021/05/08 13:58:03;;;;;;;1.40;0.77;;;;;;;;;;5022830;28;20057;-79
2021/05/08 14:00:28;;;;;;;1.40;0.73;;;;;;;;;;5022556;28;20056;-80
2021/05/08 14:02:53;;;;;;;1.20;0.80;;;;;;;;;;5056033;28;20021;-79
2021/05/08 14:05:19;;;;;;;1.03;0.60;;;;;;;;;;5039050;28;20492;-79
2021/05/08 14:07:44;;;;;;;2.07;0.97;;;;;;;;;;5022721;28;20509;-79
2021/05/08 14:10:10;;;;;;;1.63;0.60;;;;;;;;;;5039985;28;20033;-79
2021/05/08 14:12:35;;;;;;;1.83;0.70;;;;;;;;;;5022675;28;20028;-79
2021/05/08 14:15:01;;;;;;;1.17;0.60;;;;;;;;;;5039259;28;20020;-79
2021/05/08 14:17:26;;;;;;;0.97;0.70;;;;;;;;;;5022706;28;20048;-80
2021/05/08 14:19:51;;;;;;;1.40;0.70;;;;;;;;;;5022001;28;20114;-80
2021/05/08 14:22:17;;;;;;;1.10;0.70;;;;;;;;;;5038582;28;20052;-80
2021/05/08 14:24:42;;;;;;;1.07;0.60;;;;;;;;;;5038794;28;20025;-79
2021/05/08 14:27:08;;;;;;;1.03;0.63;;;;;;;;;;5021238;28;20021;-80
2021/05/08 14:29:33;;;;;;;1.00;0.68;;;;;;;;;;5038058;28;20021;-80
2021/05/08 14:31:59;;;;;;;1.40;0.63;;;;;;;;;;5037454;28;20029;-79
2021/05/08 14:34:24;;;;;;;1.50;0.73;;;;;;;;;;5037621;28;20064;-80
2021/05/08 14:36:49;;;;;;;1.07;0.60;;;;;;;;;;5021860;28;20025;-79
2021/05/08 14:39:15;;;;;;;1.50;0.70;;;;;;;;;;5039019;28;20574;-80
2021/05/08 14:41:40;;;;;;;1.23;0.60;;;;;;;;;;5056432;28;20052;-80
2021/05/08 14:44:06;;;;;;;2.33;0.77;;;;;;;;;;5022249;28;20024;-80
2021/05/08 14:46:33;;;;;;;1.80;0.77;;;;;;;;;;5019506;28;20026;-80
2021/05/08 14:48:58;;;;;;;2.05;0.63;;;;;;;;;;4996463;28;20021;-79